02MA weather

Public forecast

Using degrees Fahrenheit for public forecast. Weather courtesy of forecast.io.

Closest aviation weather report (METAR) to Cuttyhunk Heliport

Closest report is Martha's Vineyard Airport, 14.2 nm (26.2 km) E. Retrieved 2020/08/14 01:53 UTC (34 minutes ago):

KMVY 140153Z 00000KT 10SM OVC080 22/20 A3007 RMK AO2 SLP183 T02220200

Closest aviation forecast (TAF) to Cuttyhunk Heliport

Closest forecast is Cape Cod Coast Guard Air Station, 23.2 nm (42.9 km) NE. Retrieved 2020-08-14 00:42 UTC (2 hours ago):

TAF KFMH 132339Z 1400/1424 00000KT P6SM BKN120 OVC250 FM140700 02003KT P6SM BKN150 FM141600 05006KT P6SM BKN250